ADDS METAR Data INFO
IDs: Format: Raw Decoded Include TAF

Data at: 0202 UTC 17 Oct 2017

KFSM 170153Z 00000KT 10SM CLR 13/08 A3030 RMK AO2 SLP258 T01330078
KFSM 170053Z 00000KT 10SM CLR 16/06 A3029 RMK AO2 SLP257 T01560061
KFSM 162353Z 15003KT 10SM CLR 18/06 A3028 RMK AO2 SLP254 T01830056 10222 20183 55006
KFSM 162253Z 15006KT 10SM R25/4500VP6000FT CLR 21/04 A3028 RMK AO2 SLP251 T02060044
KFSM 162153Z VRB04KT 10SM CLR 21/03 A3029 RMK AO2 SLP256 T02060033
KFSM 162053Z 00000KT 10SM CLR 21/03 A3030 RMK AO2 SLP259 T02060033 56033
KFSM 161953Z VRB03KT 10SM CLR 21/04 A3033 RMK AO2 SLP268 T02060039
KFSM 161853Z 10003KT 10SM CLR 19/04 A3036 RMK AO2 SLP279 T01940039
KFSM 161753Z 06007KT 10SM CLR 19/06 A3040 RMK AO2 SLP292 T01890056 10189 20067 58013
KFSM 161653Z 06009KT 10SM CLR 17/04 A3042 RMK AO2 SLP301 T01720044
KFSM 161553Z 07005KT 10SM CLR 16/06 A3044 RMK AO2 SLP306 T01560056
KFSM 161453Z 05004KT 10SM CLR 14/07 A3044 RMK AO2 SLP305 T01390072 53011
KFSM 161353Z 00000KT 10SM CLR 11/08 A3042 RMK AO2 SLP302 T01060078
KFSM 161253Z 00000KT 10SM CLR 08/07 A3041 RMK AO2 SLP297 T00780067
KFSM 161153Z 00000KT 10SM CLR 08/06 A3040 RMK AO2 SLP295 T00780061 10117 20072 53010
KFSM 161053Z 00000KT 10SM CLR 08/07 A3040 RMK AO2 SLP291 T00780067
KFSM 160953Z AUTO 00000KT 10SM CLR 08/07 A3038 RMK AO2 SLP285 T00830067
KFSM 160853Z AUTO 00000KT 10SM CLR 09/07 A3037 RMK AO2 SLP284 T00890072 51003
KFSM 160753Z AUTO 00000KT 10SM CLR 09/07 A3037 RMK AO2 SLP283 T00940072
KFSM 160653Z AUTO 00000KT 10SM CLR 11/07 A3037 RMK AO2 SLP283 T01060067
KFSM 160553Z AUTO 00000KT 7SM CLR 11/07 A3037 RMK AO2 SLP281 T01060067 10178 20106 402610106 51006
KFSM 160453Z AUTO 00000KT 10SM CLR 11/07 A3036 RMK AO2 SLP280 T01060072
KFSM 160353Z AUTO 00000KT 10SM CLR 12/08 A3036 RMK AO2 SLP280 T01220078
KFSM 160253Z 00000KT 10SM CLR 14/07 A3035 RMK AO2 SLP275 T01390072 51021
KFSM 160153Z 33006KT 10SM CLR 16/06 A3033 RMK AO2 SLP269 T01560061
KFSM 160053Z 33005KT 10SM CLR 16/06 A3031 RMK AO2 SLP262 T01610061
KFSM 152353Z 34007KT 10SM CLR 18/05 A3028 RMK AO2 SLP252 T01780050 10228 20178 53010
KFSM 152253Z 34011KT 10SM CLR 20/05 A3027 RMK AO2 SLP247 T02000050
KFSM 152153Z 34014KT 10SM CLR 22/06 A3025 RMK AO2 SLP241 T02170056
KFSM 152053Z 34012KT 10SM CLR 23/06 A3025 RMK AO2 SLP241 T02280061 55005
KFSM 151953Z AUTO 36012KT 10SM CLR 22/06 A3024 RMK AO2 SLP237 T02170061
KFSM 151853Z 33010KT 10SM CLR 21/07 A3026 RMK AO2 SLP244 T02110072
KFSM 151753Z 01013G19KT 10SM CLR 19/07 A3027 RMK AO2 SLP247 60000 T01940072 10194 20133 50004
KFSM 151653Z 35011G20KT 10SM CLR 18/08 A3028 RMK AO2 SLP251 T01780078
KFSM 151553Z 35012G18KT 10SM CLR 16/08 A3028 RMK AO2 SLP249 T01610083
KFSM 151453Z 33007KT 10SM CLR 15/10 A3026 RMK AO2 SLP244 60000 T01500100 51036
KFSM 151430Z 34007KT 10SM SCT021 14/09 A3025 RMK AO2 T01390094